Time;durP1;ratioP1;P1;durP2;ratioP2;P2;SDS_P1;SDS_P2;PMS_P1;PMS_P2;Temp;Humidity;BMP_temperature;BMP_pressure;BME280_temperature;BME280_humidity;BME280_pressure;Samples;Min_cycle;Max_cycle;Signal;HPM_P1;HPM_P2
2022/05/23 00:01:50;;;;;;;4.13;2.00;;;;;;;17.33;66.59;97346.09;5073043;28;20212;-69
2022/05/23 00:04:17;;;;;;;2.40;1.80;;;;;;;17.36;66.20;97350.09;5074557;28;20231;-69
2022/05/23 00:06:44;;;;;;;2.30;2.10;;;;;;;17.42;65.30;97347.13;5074411;28;20567;-69
2022/05/23 00:09:11;;;;;;;2.70;1.80;;;;;;;17.41;64.92;97350.91;5075406;28;20228;-69
2022/05/23 00:11:38;;;;;;;2.63;2.00;;;;;;;17.50;64.58;97341.19;5073271;28;20209;-69
2022/05/23 00:14:05;;;;;;;3.23;2.40;;;;;;;17.50;65.26;97333.09;5075370;28;20201;-69
2022/05/23 00:16:35;;;;;;;3.53;1.90;;;;;;;17.38;65.41;97329.94;5072897;28;20208;-69
2022/05/23 00:19:02;;;;;;;4.37;2.00;;;;;;;17.27;65.91;97324.91;5074190;28;20247;-69
2022/05/23 00:21:28;;;;;;;2.20;2.00;;;;;;;17.32;66.39;97332.97;5073200;28;20204;-69
2022/05/23 00:23:54;;;;;;;2.87;2.03;;;;;;;17.38;64.80;97321.09;5074134;28;20223;-69
2022/05/23 00:26:23;;;;;;;2.57;1.83;;;;;;;17.45;65.00;97321.59;5072363;28;20201;-69
2022/05/23 00:28:51;;;;;;;1.80;1.70;;;;;;;17.48;64.51;97316.47;5073519;28;20232;-69
2022/05/23 00:31:17;;;;;;;1.80;1.57;;;;;;;17.44;66.05;97312.75;5073616;28;20208;-69
2022/05/23 00:36:33;;;;;;;1.87;1.67;;;;;;;17.57;63.96;97281.72;5073792;28;20187;-69
2022/05/23 00:39:00;;;;;;;2.20;1.70;;;;;;;17.44;64.95;97282.38;5074642;28;20229;-69
2022/05/23 00:44:41;;;;;;;2.83;2.03;;;;;;;17.27;67.27;97269.31;4973732;28;20306;-69
2022/05/23 00:47:25;;;;;;;3.80;2.60;;;;;;;17.23;66.64;97265.56;5046253;28;20205;-70
2022/05/23 00:49:52;;;;;;;2.83;2.13;;;;;;;17.18;66.77;97257.56;5073174;28;20200;-69
2022/05/23 00:52:46;;;;;;;3.63;2.20;;;;;;;17.16;67.33;97265.09;5072580;28;20209;-69
2022/05/23 00:55:21;;;;;;;2.80;2.20;;;;;;;17.10;67.57;97263.50;5074155;28;20204;-69
2022/05/23 00:57:52;;;;;;;3.67;2.30;;;;;;;17.05;68.00;97263.56;5073057;28;20706;-69
2022/05/23 01:00:19;;;;;;;3.17;2.10;;;;;;;17.01;68.32;97262.50;5055447;28;20209;-69
2022/05/23 01:02:52;;;;;;;3.73;2.10;;;;;;;16.91;68.44;97259.88;5072428;28;20197;-69
2022/05/23 01:05:19;;;;;;;4.00;2.37;;;;;;;16.91;68.66;97267.13;5070582;28;20220;-69
2022/05/23 01:07:46;;;;;;;3.43;2.30;;;;;;;16.79;68.58;97261.31;5072099;28;20225;-69
2022/05/23 01:10:12;;;;;;;5.07;2.20;;;;;;;16.70;70.14;97260.28;5073976;28;20208;-69
2022/05/23 01:12:39;;;;;;;2.87;1.93;;;;;;;16.70;69.56;97253.00;5073182;28;20209;-69
2022/05/23 01:15:24;;;;;;;2.97;2.03;;;;;;;16.67;69.78;97244.72;5072516;28;20196;-69
2022/05/23 01:17:51;;;;;;;2.57;2.23;;;;;;;16.50;70.18;97241.59;5073243;28;20228;-69
2022/05/23 01:20:18;;;;;;;3.40;2.37;;;;;;;16.41;71.23;97235.19;5072032;28;20212;-69
2022/05/23 01:23:20;;;;;;;3.00;2.33;;;;;;;16.41;71.41;97232.50;5072720;28;20671;-69
2022/05/23 01:25:48;;;;;;;3.57;2.27;;;;;;;16.46;71.68;97224.47;5072787;28;20297;-70
2022/05/23 01:28:16;;;;;;;2.80;2.10;;;;;;;16.48;70.85;97231.16;5072143;28;20220;-69
2022/05/23 01:30:44;;;;;;;3.53;2.10;;;;;;;16.44;71.33;97227.41;5072891;28;20208;-71
2022/05/23 01:33:12;;;;;;;2.20;2.00;;;;;;;16.48;71.78;97217.75;5072849;28;20200;-72
2022/05/23 01:35:39;;;;;;;4.37;2.30;;;;;;;16.52;71.34;97217.97;5070656;28;20197;-71
2022/05/23 01:38:06;;;;;;;4.10;2.30;;;;;;;16.52;71.25;97218.75;5072669;28;20311;-71
2022/05/23 01:40:34;;;;;;;2.40;2.20;;;;;;;16.53;71.06;97212.34;5072833;28;20205;-71
2022/05/23 01:43:01;;;;;;;3.90;2.17;;;;;;;16.51;71.11;97213.69;5072656;28;20201;-71
2022/05/23 01:45:31;;;;;;;6.13;2.10;;;;;;;16.50;71.51;97223.63;5072720;28;20220;-71
2022/05/23 01:47:59;;;;;;;3.87;2.10;;;;;;;16.36;71.66;97211.03;5072327;28;20255;-72
2022/05/23 01:50:26;;;;;;;2.70;2.20;;;;;;;16.31;73.11;97219.94;5072715;28;20253;-71
2022/05/23 01:52:53;;;;;;;2.47;1.80;;;;;;;16.36;73.19;97213.72;5071264;28;20575;-72
2022/05/23 01:55:21;;;;;;;3.13;1.77;;;;;;;16.29;73.25;97230.13;5070993;28;20205;-72
2022/05/23 01:57:47;;;;;;;4.50;2.13;;;;;;;16.26;73.60;97216.47;5072416;28;20220;-69
2022/05/23 02:02:58;;;;;;;2.40;1.83;;;;;;;16.10;74.20;97217.59;5070717;28;20273;-69
2022/05/23 02:05:25;;;;;;;3.07;2.20;;;;;;;16.06;74.96;97217.34;5072088;28;20725;-69
2022/05/23 02:07:52;;;;;;;2.43;2.23;;;;;;;16.02;75.04;97213.59;5070563;28;20224;-69
2022/05/23 02:10:20;;;;;;;2.97;2.00;;;;;;;16.11;74.62;97211.94;5073495;28;20200;-69
2022/05/23 02:12:47;;;;;;;3.00;2.50;;;;;;;16.06;74.58;97203.94;5072023;28;20208;-69
2022/05/23 02:15:14;;;;;;;2.20;2.00;;;;;;;16.11;75.44;97197.75;5072440;28;20207;-69
2022/05/23 02:17:41;;;;;;;3.10;2.40;;;;;;;16.09;74.57;97194.53;5071902;28;20599;-69
2022/05/23 02:20:09;;;;;;;4.43;2.30;;;;;;;16.07;74.56;97197.50;5072425;28;20204;-69
2022/05/23 02:22:36;;;;;;;2.30;2.10;;;;;;;16.07;75.04;97191.34;5072989;28;20205;-70
2022/05/23 02:25:04;;;;;;;3.27;2.10;;;;;;;16.08;75.01;97192.94;5070101;28;20354;-69
2022/05/23 02:27:30;;;;;;;3.47;2.43;;;;;;;16.09;74.87;97176.56;5073226;28;20229;-69
2022/05/23 02:29:57;;;;;;;5.67;2.70;;;;;;;16.10;75.37;97180.84;5072216;28;20262;-69
2022/05/23 02:32:24;;;;;;;4.60;2.60;;;;;;;16.13;74.98;97176.81;5073825;28;20215;-69
2022/05/23 02:34:50;;;;;;;4.13;2.80;;;;;;;16.03;75.82;97177.69;5070714;28;20201;-69
2022/05/23 02:37:16;;;;;;;5.73;2.67;;;;;;;16.04;76.01;97173.91;5072289;28;20208;-69
2022/05/23 02:39:43;;;;;;;5.27;2.70;;;;;;;16.12;75.20;97162.63;5072093;28;20201;-70
2022/05/23 02:42:09;;;;;;;3.63;2.70;;;;;;;16.17;75.09;97159.09;5070755;28;20209;-69
2022/05/23 02:44:36;;;;;;;4.47;2.50;;;;;;;16.11;75.63;97157.53;5071956;28;20216;-69
2022/05/23 02:47:04;;;;;;;3.43;2.63;;;;;;;16.06;76.65;97152.97;5070588;28;21985;-69
2022/05/23 02:49:30;;;;;;;5.20;2.70;;;;;;;15.94;76.67;97147.16;5071549;28;20220;-69
2022/05/23 02:51:57;;;;;;;5.67;2.80;;;;;;;15.95;76.94;97139.91;5072751;28;20215;-69
2022/05/23 02:54:23;;;;;;;11.17;3.30;;;;;;;15.90;77.17;97134.56;5071893;28;20201;-70
2022/05/23 02:56:50;;;;;;;5.43;2.90;;;;;;;15.87;77.41;97132.47;5071545;28;20554;-69
2022/05/23 02:59:16;;;;;;;9.40;2.93;;;;;;;15.78;77.85;97123.38;5070721;28;20228;-69
2022/05/23 03:04:23;;;;;;;5.40;2.90;;;;;;;15.89;76.05;97120.38;5068832;28;20227;-69
2022/05/23 03:06:49;;;;;;;4.43;2.90;;;;;;;15.90;76.61;97110.44;5071137;28;20296;-69
2022/05/23 03:09:15;;;;;;;6.00;3.10;;;;;;;15.93;75.96;97113.38;5073709;28;20221;-69
2022/05/23 03:11:42;;;;;;;4.67;2.70;;;;;;;15.99;75.03;97103.44;5075595;28;20209;-69
2022/05/23 03:14:09;;;;;;;5.40;2.87;;;;;;;16.03;75.10;97105.31;5074359;28;20208;-69
2022/05/23 03:16:35;;;;;;;5.37;2.90;;;;;;;16.04;75.31;97106.91;5075839;28;20196;-70
2022/05/23 03:19:02;;;;;;;4.10;2.70;;;;;;;16.05;74.85;97103.13;5073111;28;20233;-70
2022/05/23 03:27:07;;;;;;;7.33;2.97;;;;;;;16.12;74.22;97102.81;5013402;28;20669;-69
2022/05/23 03:29:33;;;;;;;6.73;2.90;;;;;;;16.10;74.76;97105.78;5012416;28;20209;-69
2022/05/23 03:31:59;;;;;;;5.47;2.77;;;;;;;16.06;74.44;97112.78;5039770;28;20587;-70
2022/05/23 03:34:26;;;;;;;8.83;2.87;;;;;;;16.05;75.27;97107.72;5074943;28;20196;-70
2022/05/23 03:36:52;;;;;;;10.70;2.63;;;;;;;16.02;75.09;97109.03;5074486;28;20204;-72
2022/05/23 03:39:18;;;;;;;8.07;2.80;;;;;;;15.98;75.56;97102.66;5071697;28;20220;-71
2022/05/23 03:41:45;;;;;;;4.13;2.37;;;;;;;16.03;75.02;97096.44;5075682;28;20216;-71
2022/05/23 03:44:11;;;;;;;4.87;2.37;;;;;;;15.97;75.14;97089.50;5074290;28;20205;-69
2022/05/23 03:46:38;;;;;;;8.10;2.47;;;;;;;15.86;76.27;97098.66;5073772;28;20309;-69
2022/05/23 03:49:06;;;;;;;3.97;2.60;;;;;;;15.89;76.04;97092.75;5074196;28;20338;-70
2022/05/23 03:51:33;;;;;;;6.27;3.00;;;;;;;15.94;76.32;97085.50;5074646;28;20204;-70
2022/05/23 03:53:59;;;;;;;5.63;2.67;;;;;;;15.95;76.58;97102.38;5072095;28;20204;-72
2022/05/23 03:56:26;;;;;;;4.00;2.43;;;;;;;15.99;75.48;97131.06;5073890;28;20201;-70
2022/05/23 03:58:52;;;;;;;7.53;3.13;;;;;;;15.97;75.64;97135.88;5073331;28;20255;-69
2022/05/23 04:01:21;;;;;;;4.50;2.63;;;;;;;16.00;75.34;97146.06;5074175;28;20220;-72
2022/05/23 04:03:47;;;;;;;5.57;2.93;;;;;;;16.04;75.37;97144.44;5073810;28;20228;-70
2022/05/23 04:06:15;;;;;;;4.07;2.60;;;;;;;16.18;75.13;97156.16;5073213;28;20618;-72
2022/05/23 04:08:41;;;;;;;3.13;2.40;;;;;;;16.32;72.29;97162.53;5074480;28;20228;-69
2022/05/23 04:11:07;;;;;;;5.40;2.30;;;;;;;16.32;71.43;97226.88;5073228;28;20224;-70
2022/05/23 04:13:35;;;;;;;2.57;2.20;;;;;;;16.33;71.72;97303.59;5074206;28;20212;-69
2022/05/23 04:16:03;;;;;;;3.67;2.30;;;;;;;16.25;70.74;97327.50;5073778;28;20193;-69
2022/05/23 04:18:29;;;;;;;5.00;1.80;;;;;;;16.41;68.81;97334.44;5073708;28;20582;-69
2022/05/23 04:20:59;;;;;;;3.00;1.97;;;;;;;16.58;66.45;97319.66;5072959;28;20211;-69
2022/05/23 04:23:25;;;;;;;2.10;1.50;;;;;;;16.63;67.19;97330.34;5074081;28;20544;-72
2022/05/23 04:25:52;;;;;;;3.77;1.90;;;;;;;16.48;71.33;97337.66;5073745;28;20224;-70
2022/05/23 04:28:20;;;;;;;3.67;2.00;;;;;;;16.35;71.79;97349.75;5073587;28;20574;-69
2022/05/23 04:30:47;;;;;;;4.80;2.23;;;;;;;16.29;73.88;97361.53;5073928;28;20200;-69
2022/05/23 04:35:59;;;;;;;4.30;2.47;;;;;;;15.74;80.25;97369.66;5073424;28;20180;-69
2022/05/23 04:38:26;;;;;;;4.27;2.53;;;;;;;15.44;88.67;97374.19;5073578;28;20250;-69
2022/05/23 04:40:53;;;;;;;4.77;2.50;;;;;;;15.37;86.65;97369.09;5073623;28;20291;-69
2022/05/23 04:43:19;;;;;;;3.83;2.10;;;;;;;15.24;91.94;97372.22;5074393;28;20242;-69
2022/05/23 04:45:45;;;;;;;5.33;2.60;;;;;;;15.37;89.59;97369.09;5072460;28;20220;-71
2022/05/23 04:50:56;;;;;;;5.03;2.37;;;;;;;15.30;89.40;97333.69;5072453;28;20259;-71
2022/05/23 04:53:22;;;;;;;3.53;2.47;;;;;;;15.24;93.58;97329.38;5072405;28;20207;-71
2022/05/23 04:55:49;;;;;;;5.67;2.27;;;;;;;15.16;95.63;97331.78;5055201;28;20205;-71
2022/05/23 04:58:15;;;;;;;4.70;2.60;;;;;;;15.18;95.57;97345.72;5069594;28;20231;-71
2022/05/23 05:00:42;;;;;;;6.37;2.80;;;;;;;15.09;100.00;97325.88;5074199;28;20215;-71
2022/05/23 05:03:09;;;;;;;6.20;3.30;;;;;;;15.05;100.00;97295.34;5071228;28;20223;-69
2022/05/23 05:05:36;;;;;;;8.03;3.10;;;;;;;15.08;100.00;97271.56;5073327;28;20310;-68
2022/05/23 05:08:03;;;;;;;3.80;2.63;;;;;;;15.18;100.00;97257.34;5072562;28;20714;-69
2022/05/23 05:10:30;;;;;;;5.57;2.87;;;;;;;15.14;100.00;97281.19;5071894;28;20204;-68
2022/05/23 05:12:57;;;;;;;6.17;3.17;;;;;;;15.18;100.00;97294.84;5071763;28;20204;-71
2022/05/23 05:15:26;;;;;;;5.80;3.00;;;;;;;15.11;100.00;97281.72;5072616;28;20208;-71
2022/05/23 05:17:53;;;;;;;3.37;3.00;;;;;;;15.12;100.00;97290.56;5071722;28;20217;-71
2022/05/23 05:20:19;;;;;;;5.83;3.30;;;;;;;15.09;100.00;97299.91;5073799;28;20208;-70
2022/05/23 05:22:47;;;;;;;6.23;2.90;;;;;;;15.14;100.00;97310.63;5072176;28;20227;-71
2022/05/23 05:25:16;;;;;;;4.87;3.23;;;;;;;15.14;100.00;97299.94;5072322;28;20220;-69
2022/05/23 05:27:43;;;;;;;3.87;3.27;;;;;;;15.26;100.00;97297.00;5071217;28;20698;-71
2022/05/23 05:30:15;;;;;;;6.53;3.47;;;;;;;15.22;100.00;97264.59;5071757;28;20211;-71
2022/05/23 05:33:09;;;;;;;4.60;3.20;;;;;;;15.23;100.00;97242.09;5072530;28;20223;-69
2022/05/23 05:35:39;;;;;;;3.93;2.80;;;;;;;15.15;100.00;97231.91;5072653;28;20187;-69
2022/05/23 05:38:17;;;;;;;6.57;3.60;;;;;;;15.20;100.00;97212.38;5071281;28;20251;-69
2022/05/23 05:40:48;;;;;;;3.47;2.90;;;;;;;15.17;100.00;97192.31;5070997;28;20193;-69
2022/05/23 05:43:20;;;;;;;5.73;3.20;;;;;;;15.19;100.00;97194.72;5071754;28;20204;-69
2022/05/23 05:46:12;;;;;;;6.70;3.10;;;;;;;15.23;100.00;97206.47;5070830;28;20217;-69
2022/05/23 05:48:41;;;;;;;4.67;2.97;;;;;;;15.27;100.00;97211.03;5070883;28;20239;-69
2022/05/23 05:51:13;;;;;;;5.43;3.23;;;;;;;15.33;100.00;97191.22;5071146;28;20303;-69
2022/05/23 05:53:40;;;;;;;4.90;3.10;;;;;;;15.35;100.00;97183.75;5071862;28;20209;-69
2022/05/23 05:56:09;;;;;;;3.83;2.90;;;;;;;15.29;100.00;97173.28;5073293;28;20205;-69
2022/05/23 05:58:35;;;;;;;5.03;3.33;;;;;;;15.33;100.00;97156.41;5071605;28;20232;-69
2022/05/23 06:01:02;;;;;;;5.20;3.30;;;;;;;15.36;100.00;97142.50;5067251;28;20214;-69
2022/05/23 06:03:29;;;;;;;7.07;3.60;;;;;;;15.45;100.00;97135.53;5067520;28;20595;-69
2022/05/23 06:11:26;;;;;;;3.53;2.90;;;;;;;15.66;97.56;97133.59;5070712;28;20301;-69
2022/05/23 06:13:54;;;;;;;3.20;2.90;;;;;;;15.69;96.71;97120.44;5071264;28;20250;-69
2022/05/23 06:16:20;;;;;;;6.33;2.90;;;;;;;15.66;95.33;97109.47;5071960;28;20196;-69
2022/05/23 06:18:47;;;;;;;4.77;3.00;;;;;;;15.71;95.51;97106.78;5069283;28;20224;-69
2022/05/23 06:21:13;;;;;;;4.10;2.83;;;;;;;15.77;94.37;97095.75;5070932;28;20223;-69
2022/05/23 06:23:46;;;;;;;3.57;2.97;;;;;;;15.93;96.40;97088.47;5070849;28;20208;-70
2022/05/23 06:26:14;;;;;;;3.97;2.83;;;;;;;16.13;94.46;97099.88;5073078;28;20298;-70
2022/05/23 06:28:40;;;;;;;3.70;3.40;;;;;;;16.24;96.20;97106.78;5071753;28;20228;-70
2022/05/23 06:31:06;;;;;;;4.50;3.27;;;;;;;16.30;96.41;97100.31;5071825;28;20204;-71
2022/05/23 06:33:33;;;;;;;3.27;2.97;;;;;;;16.40;95.03;97092.22;5071032;28;20214;-70
2022/05/23 06:35:59;;;;;;;4.50;3.07;;;;;;;16.42;95.33;97087.38;5072977;28;20204;-70
2022/05/23 06:38:26;;;;;;;3.83;2.73;;;;;;;16.52;95.05;97075.78;5069089;28;20235;-70
2022/05/23 06:40:53;;;;;;;3.53;3.23;;;;;;;16.60;94.29;97059.88;5072784;28;20311;-72
2022/05/23 06:43:20;;;;;;;4.63;2.93;;;;;;;16.67;93.81;97036.22;5074433;28;20262;-70
2022/05/23 06:45:48;;;;;;;6.83;3.47;;;;;;;16.52;92.57;97017.53;5076694;28;20229;-69
2022/05/23 06:48:15;;;;;;;4.07;2.90;;;;;;;16.41;94.13;97028.63;5074028;28;20702;-70
2022/05/23 06:50:42;;;;;;;5.13;3.30;;;;;;;16.34;93.58;97012.03;5075608;28;20209;-70
2022/05/23 06:53:08;;;;;;;4.40;3.17;;;;;;;16.32;92.78;97000.78;5074464;28;20208;-70
2022/05/23 06:55:34;;;;;;;7.20;2.90;;;;;;;16.32;92.71;97006.13;5076356;28;20204;-70
2022/05/23 06:58:01;;;;;;;5.40;3.20;;;;;;;16.49;91.86;97011.94;5075215;28;20239;-70
2022/05/23 07:00:27;;;;;;;3.90;2.77;;;;;;;16.77;90.14;97017.31;5073578;28;20205;-70
2022/05/23 07:02:53;;;;;;;4.03;2.83;;;;;;;16.66;89.59;97029.25;5076360;28;20208;-70
2022/05/23 07:13:35;;;;;;;3.93;2.63;;;;;;;16.96;88.40;97038.91;5074953;28;20256;-70
2022/05/23 07:16:02;;;;;;;4.93;2.87;;;;;;;17.27;87.97;97035.59;5073403;28;20289;-69
2022/05/23 07:18:30;;;;;;;2.93;2.60;;;;;;;17.20;84.99;97039.72;5074832;28;20231;-70
2022/05/23 07:20:56;;;;;;;5.17;2.93;;;;;;;17.25;85.06;97045.03;5075925;28;20265;-69
2022/05/23 07:23:23;;;;;;;3.27;2.57;;;;;;;17.31;84.70;97041.19;5075493;28;20687;-69
2022/05/23 07:25:50;;;;;;;2.93;2.50;;;;;;;17.19;86.49;97044.28;5075743;28;20227;-69
2022/05/23 07:28:16;;;;;;;4.03;2.70;;;;;;;17.22;85.30;97048.28;5075810;28;20274;-69
2022/05/23 07:30:43;;;;;;;4.97;3.03;;;;;;;17.32;82.00;97065.09;5075488;28;20215;-69
2022/05/23 07:33:11;;;;;;;4.20;2.83;;;;;;;17.32;83.32;97054.34;5075640;28;20733;-69
2022/05/23 07:35:38;;;;;;;3.10;2.40;;;;;;;17.32;80.71;97043.59;5075591;28;20250;-69
2022/05/23 07:38:04;;;;;;;5.47;2.50;;;;;;;17.48;79.38;97039.69;5075527;28;20231;-69
2022/05/23 07:40:31;;;;;;;6.00;2.83;;;;;;;17.59;79.79;97043.84;5075673;28;20205;-70
2022/05/23 07:42:57;;;;;;;2.50;2.30;;;;;;;17.61;78.31;97049.75;5075597;28;20211;-69
2022/05/23 07:45:23;;;;;;;3.70;2.50;;;;;;;17.64;78.48;97045.69;5075698;28;20204;-70
2022/05/23 07:47:50;;;;;;;4.03;2.27;;;;;;;17.74;76.70;97040.97;5075220;28;20232;-69
2022/05/23 07:50:17;;;;;;;3.10;2.40;;;;;;;17.91;76.88;97035.13;5075441;28;20230;-70
2022/05/23 08:00:30;;;;;;;2.50;2.30;;;;;;;17.89;77.32;97046.16;5075150;28;20218;-70
2022/05/23 08:00:58;;;;;;;3.37;2.30;;;;;;;17.92;74.75;97037.50;5075169;28;20229;-70
2022/05/23 08:03:24;;;;;;;3.47;2.37;;;;;;;18.06;76.72;97027.59;5075155;28;20193;-70
2022/05/23 08:05:51;;;;;;;2.70;2.23;;;;;;;18.26;74.35;97032.72;5075169;28;20239;-70
2022/05/23 08:08:17;;;;;;;2.90;1.97;;;;;;;18.51;73.89;97032.31;5075157;28;20225;-70
2022/05/23 08:10:43;;;;;;;3.13;2.37;;;;;;;18.90;72.12;97026.56;5075282;28;20208;-70
2022/05/23 08:13:10;;;;;;;4.03;2.27;;;;;;;18.69;70.67;97020.72;5075064;28;20215;-70
2022/05/23 08:15:39;;;;;;;2.37;2.17;;;;;;;18.57;72.65;97023.09;5074755;28;20205;-70
2022/05/23 08:18:10;;;;;;;2.93;2.30;;;;;;;18.60;74.58;97027.09;5074903;28;20233;-70
2022/05/23 08:20:37;;;;;;;4.13;2.40;;;;;;;18.66;72.18;97021.34;5075103;28;20227;-70
2022/05/23 08:23:04;;;;;;;5.07;2.27;;;;;;;18.44;71.63;97005.00;5074620;28;20216;-70
2022/05/23 08:25:31;;;;;;;5.07;2.17;;;;;;;18.52;75.70;97035.84;5074943;28;20204;-70
2022/05/23 08:27:57;;;;;;;2.43;2.10;;;;;;;18.56;74.05;97016.13;5074363;28;20231;-70
2022/05/23 08:30:24;;;;;;;3.23;2.00;;;;;;;18.50;72.62;97000.34;5074789;28;20215;-70
2022/05/23 08:32:51;;;;;;;2.80;2.30;;;;;;;18.36;73.08;97005.66;5074924;28;20205;-70
2022/05/23 08:35:18;;;;;;;4.07;2.83;;;;;;;18.47;73.70;97011.69;5074521;28;20251;-70
2022/05/23 08:37:44;;;;;;;7.70;2.60;;;;;;;18.64;73.35;97006.56;5074351;28;20224;-70
2022/05/23 08:40:11;;;;;;;4.73;2.57;;;;;;;18.51;74.16;96994.66;5074542;28;20236;-70
2022/05/23 08:42:58;;;;;;;4.63;2.70;;;;;;;18.55;74.24;96992.97;5074118;28;20212;-70
2022/05/23 08:45:37;;;;;;;2.97;2.63;;;;;;;18.54;74.42;96987.88;5074557;28;20192;-70
2022/05/23 08:48:27;;;;;;;6.37;3.00;;;;;;;18.45;75.50;96987.75;5073891;28;20275;-70
2022/05/23 08:51:00;;;;;;;3.90;3.00;;;;;;;18.44;74.87;96985.34;5074074;28;20184;-70
2022/05/23 08:53:31;;;;;;;5.07;3.10;;;;;;;18.54;75.93;96977.91;5074314;28;20250;-70
2022/05/23 08:56:11;;;;;;;4.47;3.00;;;;;;;18.62;75.87;96971.06;5073962;28;20185;-70
2022/05/23 08:58:54;;;;;;;6.63;3.40;;;;;;;18.58;76.43;96964.66;5074615;28;20240;-70
2022/05/23 09:01:27;;;;;;;5.00;3.10;;;;;;;18.68;76.52;96962.59;5073884;28;20632;-70
2022/05/23 09:04:02;;;;;;;5.67;3.03;;;;;;;18.71;77.36;96956.63;5056474;28;20283;-70
2022/05/23 09:06:31;;;;;;;3.63;2.60;;;;;;;18.74;77.79;96963.31;5074279;28;20212;-70
2022/05/23 09:09:01;;;;;;;3.50;2.87;;;;;;;18.80;78.26;96952.16;5074042;28;20228;-70
2022/05/23 09:11:48;;;;;;;3.03;2.60;;;;;;;19.00;78.28;96959.84;5073961;28;20208;-70
2022/05/23 09:14:17;;;;;;;5.00;2.97;;;;;;;19.35;78.48;96953.78;5073959;28;20201;-70
2022/05/23 09:16:54;;;;;;;3.23;2.90;;;;;;;19.39;76.22;96940.50;5073569;28;20613;-70
2022/05/23 09:19:42;;;;;;;4.93;3.20;;;;;;;19.22;77.07;96965.38;5073838;28;20224;-70
2022/05/23 09:22:19;;;;;;;4.83;3.10;;;;;;;19.27;77.50;96969.88;5056562;28;20189;-70
2022/05/23 09:24:52;;;;;;;3.70;2.90;;;;;;;19.35;77.85;96978.03;5073778;28;20192;-70
2022/05/23 09:27:40;;;;;;;5.00;3.07;;;;;;;19.46;77.41;96970.56;5073553;28;20209;-70
2022/05/23 09:30:13;;;;;;;6.47;3.13;;;;;;;19.40;80.85;96977.13;5073849;28;20226;-70
2022/05/23 09:32:48;;;;;;;6.03;3.00;;;;;;;19.58;77.49;96960.84;5073548;28;20199;-70
2022/05/23 09:35:21;;;;;;;5.70;2.97;;;;;;;19.59;79.08;96948.16;5073484;28;20195;-70
2022/05/23 09:38:20;;;;;;;4.00;3.03;;;;;;;19.71;78.88;96958.44;5073536;28;20223;-70
2022/05/23 09:40:47;;;;;;;5.10;3.20;;;;;;;19.91;75.50;96955.28;5065811;28;20204;-70
2022/05/23 09:49:12;;;;;;;7.27;2.90;;;;;;;20.17;74.37;96969.81;5073145;28;20235;-70
2022/05/23 09:51:59;;;;;;;4.60;3.10;;;;;;;20.46;75.87;96968.28;5073856;28;20488;-70
2022/05/23 09:54:47;;;;;;;5.93;3.00;;;;;;;20.44;76.56;96954.28;5073078;28;20192;-70
2022/05/23 09:57:24;;;;;;;4.57;2.90;;;;;;;20.61;73.58;96970.59;5073264;28;20224;-70
2022/05/23 10:00:01;;;;;;;4.57;3.13;;;;;;;20.68;72.68;96976.38;5073129;28;20559;-70
2022/05/23 10:02:31;;;;;;;8.37;3.40;;;;;;;20.62;73.80;96976.78;5073126;28;20184;-70
2022/05/23 10:04:57;;;;;;;5.63;3.00;;;;;;;20.71;75.46;96985.75;5073265;28;20205;-70
2022/05/23 10:07:35;;;;;;;4.57;2.90;;;;;;;20.81;73.58;96985.47;5073057;28;20228;-70
2022/05/23 10:10:06;;;;;;;4.10;2.93;;;;;;;20.79;72.80;96985.00;5073254;28;20199;-70
2022/05/23 10:12:33;;;;;;;3.33;2.93;;;;;;;20.90;73.71;96989.03;5073655;28;20189;-70
2022/05/23 10:15:17;;;;;;;4.87;2.90;;;;;;;20.92;71.00;96992.22;5072320;28;20208;-70
2022/05/23 10:17:46;;;;;;;3.07;2.70;;;;;;;20.79;72.07;96988.50;5078709;28;20216;-70
2022/05/23 10:20:30;;;;;;;4.07;2.63;;;;;;;20.65;74.16;97005.88;5079278;28;20207;-71
2022/05/23 10:23:07;;;;;;;2.97;2.67;;;;;;;20.75;73.07;96998.31;5079548;28;20282;-70
2022/05/23 10:26:00;;;;;;;7.63;3.00;;;;;;;20.86;74.08;97001.56;5079270;28;20627;-71
2022/05/23 10:28:39;;;;;;;3.57;2.70;;;;;;;20.93;72.41;97008.16;5068280;28;20232;-71
2022/05/23 10:31:15;;;;;;;4.70;2.43;;;;;;;21.04;74.56;97006.78;5061578;28;20203;-71
2022/05/23 10:33:46;;;;;;;3.57;2.73;;;;;;;21.12;73.72;97019.53;5079139;28;20215;-70
2022/05/23 10:36:24;;;;;;;3.83;2.73;;;;;;;20.95;72.63;97021.34;5079035;28;20192;-71
2022/05/23 10:42:10;;;;;;;7.93;2.93;;;;;;;21.03;71.79;97043.00;5064143;28;20168;-70
2022/05/23 10:44:55;;;;;;;2.83;2.60;;;;;;;20.90;73.79;97037.66;5079154;28;20280;-70
2022/05/23 10:47:41;;;;;;;5.00;3.10;;;;;;;21.01;72.92;97045.22;5078264;28;20224;-71
2022/05/23 10:50:27;;;;;;;3.57;2.97;;;;;;;21.01;74.21;97044.41;5078907;28;20666;-71
2022/05/23 10:53:19;;;;;;;3.73;2.90;;;;;;;21.03;72.80;97048.41;5079613;28;20204;-71
2022/05/23 10:56:15;;;;;;;3.43;2.90;;;;;;;20.90;72.81;97048.47;5079273;28;20188;-71
2022/05/23 10:58:59;;;;;;;2.90;2.60;;;;;;;20.92;75.83;97046.28;5061560;28;20315;-70
2022/05/23 11:01:35;;;;;;;4.50;2.53;;;;;;;20.93;75.79;97040.56;5079072;28;20195;-70
2022/05/23 11:04:22;;;;;;;3.53;2.73;;;;;;;20.83;77.59;97034.59;5079398;28;20189;-70
2022/05/23 11:07:02;;;;;;;3.97;2.57;;;;;;;20.69;78.73;97052.75;5079081;28;20243;-71
2022/05/23 11:09:56;;;;;;;3.17;2.73;;;;;;;20.57;81.17;97057.94;5079342;28;20228;-71
2022/05/23 11:12:33;;;;;;;3.50;3.03;;;;;;;20.61;81.81;97061.63;5079134;28;20208;-71
2022/05/23 11:15:06;;;;;;;3.80;2.93;;;;;;;20.46;83.33;97075.47;5061454;28;20184;-71
2022/05/23 11:17:43;;;;;;;2.87;2.60;;;;;;;20.16;86.27;97097.75;5079252;28;20228;-71
2022/05/23 11:20:16;;;;;;;6.93;3.27;;;;;;;20.05;86.57;97102.53;5079513;28;20188;-71
2022/05/23 11:22:51;;;;;;;3.43;3.03;;;;;;;19.89;89.89;97114.72;5061766;28;20581;-70
2022/05/23 11:25:28;;;;;;;3.90;2.93;;;;;;;19.90;87.97;97118.22;5079288;28;20257;-70
2022/05/23 11:34:17;;;;;;;7.37;4.40;;;;;;;19.14;100.00;97137.69;5076149;28;20678;-70
2022/05/23 11:36:56;;;;;;;5.93;4.40;;;;;;;19.02;100.00;97143.53;5076377;28;20223;-70
2022/05/23 11:39:50;;;;;;;7.30;4.30;;;;;;;18.88;100.00;97131.09;5075701;28;20229;-70
2022/05/23 11:42:34;;;;;;;9.87;4.47;;;;;;;18.67;100.00;97136.00;5075709;28;20209;-70
2022/05/23 11:48:36;;;;;;;8.00;4.40;;;;;;;18.39;100.00;97138.84;5075287;28;20316;-70
2022/05/23 11:51:24;;;;;;;6.60;4.20;;;;;;;18.27;100.00;97128.47;5075694;28;20200;-70
2022/05/23 11:53:53;;;;;;;7.00;4.00;;;;;;;18.19;100.00;97122.94;5075633;28;20258;-70
2022/05/23 11:56:40;;;;;;;6.83;3.87;;;;;;;18.08;100.00;97124.16;5075518;28;20208;-70
2022/05/23 11:59:09;;;;;;;7.57;4.17;;;;;;;17.98;100.00;97117.03;5075324;28;20230;-69
2022/05/23 12:01:36;;;;;;;7.30;3.60;;;;;;;17.86;100.00;97087.06;5057848;28;20208;-69
2022/05/23 12:04:03;;;;;;;8.53;3.30;;;;;;;17.84;100.00;97053.47;5075633;28;20249;-69
2022/05/23 12:06:29;;;;;;;6.27;3.27;;;;;;;17.87;100.00;97047.53;5075194;28;20209;-69
2022/05/23 12:08:58;;;;;;;7.10;3.33;;;;;;;17.86;100.00;97019.03;5075230;28;20228;-69
2022/05/23 12:11:27;;;;;;;7.23;3.50;;;;;;;17.85;100.00;96988.66;5075350;28;20258;-69
2022/05/23 12:13:59;;;;;;;6.63;4.00;;;;;;;17.78;100.00;96955.94;5075809;28;20204;-69
2022/05/23 12:16:39;;;;;;;7.07;3.60;;;;;;;17.86;100.00;96893.47;5075043;28;20189;-70
2022/05/23 12:19:11;;;;;;;8.13;3.97;;;;;;;17.84;100.00;96824.94;5075293;28;20266;-70
2022/05/23 12:21:37;;;;;;;11.33;4.27;;;;;;;17.74;100.00;96790.19;5075237;28;20188;-69
2022/05/23 12:24:19;;;;;;;8.07;3.57;;;;;;;17.57;100.00;96702.06;5074742;28;20222;-69
2022/05/23 12:26:50;;;;;;;10.77;3.47;;;;;;;17.56;100.00;96656.66;5074937;28;20197;-70
2022/05/23 12:29:34;;;;;;;10.97;3.90;;;;;;;17.41;100.00;96646.97;5074924;28;20229;-69
2022/05/23 12:32:24;;;;;;;5.80;2.80;;;;;;;17.42;100.00;96640.50;5075032;28;20288;-70
2022/05/23 12:34:52;;;;;;;8.70;3.53;;;;;;;17.35;100.00;96645.44;5075010;28;20185;-70
2022/05/23 12:37:38;;;;;;;8.73;3.77;;;;;;;17.39;100.00;96651.84;5074753;28;20205;-70
2022/05/23 12:40:26;;;;;;;7.63;3.80;;;;;;;17.50;100.00;96663.22;5074189;28;20192;-70
2022/05/23 12:42:52;;;;;;;7.70;2.77;;;;;;;17.46;100.00;96707.91;5074207;28;20216;-70
2022/05/23 12:45:43;;;;;;;4.67;2.70;;;;;;;17.54;100.00;96742.13;5074408;28;20204;-70
2022/05/23 12:48:28;;;;;;;4.87;2.70;;;;;;;17.62;100.00;96761.09;5074006;28;20577;-70
2022/05/23 12:51:17;;;;;;;5.60;3.10;;;;;;;17.65;100.00;96773.13;5074627;28;20189;-70